Time;durP1;ratioP1;P1;durP2;ratioP2;P2;SDS_P1;SDS_P2;PMS_P1;PMS_P2;Temp;Humidity;BMP_temperature;BMP_pressure;BME280_temperature;BME280_humidity;BME280_pressure;Samples;Min_cycle;Max_cycle;Signal;HPM_P1;HPM_P2
2024/01/01 00:00:47;;;;;;;56.30;39.37;;;;;;;;;;5028355;28;20186;-77
2024/01/01 00:03:13;;;;;;;49.93;30.03;;;;;;;;;;5017743;28;20211;-78
2024/01/01 00:05:39;;;;;;;38.53;26.27;;;;;;;;;;5028162;28;20592;-78
2024/01/01 00:08:05;;;;;;;43.00;28.53;;;;;;;;;;5007276;28;20564;-78
2024/01/01 00:10:32;;;;;;;40.50;27.53;;;;;;;;;;5020210;28;20248;-78
2024/01/01 00:12:58;;;;;;;36.73;26.53;;;;;;;;;;5029391;28;20203;-78
2024/01/01 00:15:24;;;;;;;40.73;28.00;;;;;;;;;;5024062;28;20205;-78
2024/01/01 00:17:51;;;;;;;40.57;28.40;;;;;;;;;;5031701;28;20187;-78
2024/01/01 00:20:17;;;;;;;40.57;27.37;;;;;;;;;;5032000;28;20555;-78
2024/01/01 00:22:44;;;;;;;39.70;24.50;;;;;;;;;;5024855;28;20218;-78
2024/01/01 00:25:10;;;;;;;33.37;22.80;;;;;;;;;;5028520;28;20221;-78
2024/01/01 00:27:36;;;;;;;77.43;52.13;;;;;;;;;;5022154;28;20278;-78
2024/01/01 00:30:02;;;;;;;29.87;21.93;;;;;;;;;;5012010;28;20175;-78
2024/01/01 00:32:30;;;;;;;25.60;17.80;;;;;;;;;;5021313;28;20210;-78
2024/01/01 00:34:57;;;;;;;25.33;15.70;;;;;;;;;;5002276;28;20234;-78
2024/01/01 00:37:23;;;;;;;23.83;14.93;;;;;;;;;;5032170;28;20646;-78
2024/01/01 00:39:49;;;;;;;16.60;11.10;;;;;;;;;;5031574;28;20221;-78
2024/01/01 00:42:15;;;;;;;18.77;10.17;;;;;;;;;;5004813;28;20203;-78
2024/01/01 00:44:44;;;;;;;13.20;7.97;;;;;;;;;;5022640;28;20667;-78
2024/01/01 00:47:10;;;;;;;11.87;7.20;;;;;;;;;;5031599;28;20202;-78
2024/01/01 00:49:36;;;;;;;13.53;7.60;;;;;;;;;;5010836;28;20291;-78
2024/01/01 00:52:03;;;;;;;14.67;8.13;;;;;;;;;;5025054;28;20301;-78
2024/01/01 00:54:29;;;;;;;14.30;9.27;;;;;;;;;;5013052;28;20673;-78
2024/01/01 00:56:55;;;;;;;18.37;11.43;;;;;;;;;;5030478;28;20603;-78
2024/01/01 00:59:22;;;;;;;17.43;12.33;;;;;;;;;;5014613;28;20182;-78
2024/01/01 01:01:48;;;;;;;23.90;13.50;;;;;;;;;;5031619;28;20214;-78
2024/01/01 01:04:14;;;;;;;21.57;13.67;;;;;;;;;;5032501;28;20178;-78
2024/01/01 01:06:41;;;;;;;19.53;14.30;;;;;;;;;;5028539;28;20592;-78
2024/01/01 01:09:07;;;;;;;21.40;13.53;;;;;;;;;;5031725;28;20194;-78
2024/01/01 01:11:33;;;;;;;20.40;13.53;;;;;;;;;;5030559;28;20206;-78
2024/01/01 01:13:59;;;;;;;21.10;13.10;;;;;;;;;;5010096;28;20179;-77
2024/01/01 01:16:26;;;;;;;20.83;12.87;;;;;;;;;;5020529;28;20190;-77
2024/01/01 01:18:52;;;;;;;19.17;11.80;;;;;;;;;;5008407;28;20194;-78
2024/01/01 01:21:18;;;;;;;16.80;10.67;;;;;;;;;;5028105;28;20227;-78
2024/01/01 01:23:44;;;;;;;15.27;9.73;;;;;;;;;;5007761;28;20179;-77
2024/01/01 01:26:11;;;;;;;14.20;9.73;;;;;;;;;;5030741;28;20218;-78
2024/01/01 01:28:37;;;;;;;14.87;9.37;;;;;;;;;;5024615;28;20184;-78
2024/01/01 01:31:03;;;;;;;14.37;8.90;;;;;;;;;;5030316;28;20186;-78
2024/01/01 01:33:29;;;;;;;12.33;8.23;;;;;;;;;;5031115;28;20182;-78
2024/01/01 01:35:55;;;;;;;12.73;8.40;;;;;;;;;;5031760;28;20237;-77
2024/01/01 01:38:23;;;;;;;14.17;7.57;;;;;;;;;;5026262;28;20417;-77
2024/01/01 01:40:49;;;;;;;11.30;7.60;;;;;;;;;;5029052;28;20557;-78
2024/01/01 01:43:22;;;;;;;11.40;7.10;;;;;;;;;;5024597;28;20217;-78
2024/01/01 01:45:49;;;;;;;11.77;6.23;;;;;;;;;;5020710;28;20218;-78
2024/01/01 01:48:15;;;;;;;12.93;6.40;;;;;;;;;;5027196;28;20220;-78
2024/01/01 01:50:42;;;;;;;11.67;6.10;;;;;;;;;;5022525;28;20632;-78
2024/01/01 01:53:08;;;;;;;9.53;5.90;;;;;;;;;;5025963;28;20202;-78
2024/01/01 01:55:34;;;;;;;12.60;5.90;;;;;;;;;;5013691;28;20616;-77
2024/01/01 01:58:00;;;;;;;8.13;5.20;;;;;;;;;;5020729;28;20191;-77
2024/01/01 02:00:26;;;;;;;9.70;5.00;;;;;;;;;;5012749;28;20207;-78
2024/01/01 02:02:53;;;;;;;9.27;5.43;;;;;;;;;;4994387;28;20217;-78
2024/01/01 02:05:19;;;;;;;8.37;5.30;;;;;;;;;;5025266;28;20264;-78
2024/01/01 02:07:45;;;;;;;8.93;4.77;;;;;;;;;;5025460;28;20565;-78
2024/01/01 02:10:12;;;;;;;9.23;4.70;;;;;;;;;;5029902;28;20224;-78
2024/01/01 02:12:38;;;;;;;7.53;4.43;;;;;;;;;;5029641;28;20285;-77
2024/01/01 02:15:05;;;;;;;7.80;5.23;;;;;;;;;;5027528;28;20225;-78
2024/01/01 02:17:31;;;;;;;8.30;4.43;;;;;;;;;;5028556;28;20213;-78
2024/01/01 02:19:57;;;;;;;9.67;5.07;;;;;;;;;;5016548;28;20651;-77
2024/01/01 02:22:23;;;;;;;8.77;4.77;;;;;;;;;;5008116;28;20208;-77
2024/01/01 02:24:49;;;;;;;10.27;5.30;;;;;;;;;;4998313;28;20190;-77
2024/01/01 02:27:16;;;;;;;8.40;4.73;;;;;;;;;;5027264;28;20221;-78
2024/01/01 02:29:42;;;;;;;12.50;5.53;;;;;;;;;;5033502;28;20182;-77
2024/01/01 02:32:08;;;;;;;9.27;5.57;;;;;;;;;;5027877;28;20195;-77
2024/01/01 02:34:34;;;;;;;11.83;5.13;;;;;;;;;;5022883;28;20178;-77
2024/01/01 02:37:00;;;;;;;12.80;6.40;;;;;;;;;;5026145;28;20282;-77
2024/01/01 02:39:26;;;;;;;11.53;5.90;;;;;;;;;;5032207;28;20209;-77
2024/01/01 02:41:52;;;;;;;11.43;5.83;;;;;;;;;;5030132;28;20291;-77
2024/01/01 02:44:18;;;;;;;12.50;5.90;;;;;;;;;;5003386;28;20546;-77
2024/01/01 02:46:45;;;;;;;10.27;6.10;;;;;;;;;;5002019;28;20207;-78
2024/01/01 02:49:11;;;;;;;14.13;7.10;;;;;;;;;;5025245;28;20198;-77
2024/01/01 02:51:41;;;;;;;14.13;7.10;;;;;;;;;;5022507;28;20210;-77
2024/01/01 02:54:07;;;;;;;13.17;6.77;;;;;;;;;;5029623;28;20219;-77
2024/01/01 02:56:33;;;;;;;12.37;6.80;;;;;;;;;;5024007;28;20195;-78
2024/01/01 02:59:00;;;;;;;10.97;6.27;;;;;;;;;;5023141;28;20605;-77
2024/01/01 03:01:26;;;;;;;12.50;6.67;;;;;;;;;;5027471;28;20225;-77
2024/01/01 03:03:52;;;;;;;9.23;5.60;;;;;;;;;;5029475;28;20259;-78
2024/01/01 03:06:18;;;;;;;13.87;5.57;;;;;;;;;;5022346;28;20252;-77
2024/01/01 03:08:45;;;;;;;9.23;5.47;;;;;;;;;;5022476;28;20190;-77
2024/01/01 03:11:11;;;;;;;8.53;5.23;;;;;;;;;;5025067;28;20598;-77
2024/01/01 03:13:37;;;;;;;11.47;5.60;;;;;;;;;;5028681;28;20273;-78
2024/01/01 03:16:04;;;;;;;9.13;5.30;;;;;;;;;;5010039;28;20654;-77
2024/01/01 03:18:30;;;;;;;13.77;7.53;;;;;;;;;;5023302;28;20183;-77
2024/01/01 03:20:56;;;;;;;11.33;6.33;;;;;;;;;;5024178;28;20244;-77
2024/01/01 03:23:22;;;;;;;12.07;5.00;;;;;;;;;;5025542;28;20211;-77
2024/01/01 03:25:48;;;;;;;11.17;5.40;;;;;;;;;;5020250;28;20581;-77
2024/01/01 03:28:15;;;;;;;10.20;5.10;;;;;;;;;;5030306;28;20585;-77
2024/01/01 03:30:41;;;;;;;10.70;5.10;;;;;;;;;;5028537;28;20194;-77
2024/01/01 03:33:07;;;;;;;9.67;4.93;;;;;;;;;;5028126;28;20213;-78
2024/01/01 03:35:33;;;;;;;9.73;5.10;;;;;;;;;;5025885;28;20224;-77
2024/01/01 03:37:59;;;;;;;7.87;4.17;;;;;;;;;;5009570;28;20197;-77
2024/01/01 03:40:26;;;;;;;7.87;4.23;;;;;;;;;;5020058;28;20298;-77
2024/01/01 03:42:52;;;;;;;6.97;4.43;;;;;;;;;;5028774;28;20238;-78
2024/01/01 03:45:18;;;;;;;8.63;4.30;;;;;;;;;;5027720;28;20602;-78
2024/01/01 03:47:44;;;;;;;8.47;4.20;;;;;;;;;;5028603;28;20188;-78
2024/01/01 03:50:10;;;;;;;7.33;3.87;;;;;;;;;;5025982;28;20186;-77
2024/01/01 03:52:37;;;;;;;10.97;3.97;;;;;;;;;;5007844;28;20309;-78
2024/01/01 03:55:04;;;;;;;7.90;3.60;;;;;;;;;;5020695;28;20179;-78
2024/01/01 03:57:32;;;;;;;8.00;3.20;;;;;;;;;;5019713;28;20745;-79
2024/01/01 03:59:59;;;;;;;6.30;3.63;;;;;;;;;;5021239;28;20667;-78
2024/01/01 04:02:25;;;;;;;10.20;4.10;;;;;;;;;;5026813;28;20195;-77
2024/01/01 04:04:51;;;;;;;7.97;3.77;;;;;;;;;;5028536;28;20191;-78
2024/01/01 04:07:17;;;;;;;8.47;4.47;;;;;;;;;;5028628;28;20190;-78
2024/01/01 04:09:44;;;;;;;5.73;3.33;;;;;;;;;;5026457;28;20555;-77
2024/01/01 04:12:10;;;;;;;9.27;3.40;;;;;;;;;;5007149;28;20256;-78
2024/01/01 04:14:36;;;;;;;7.80;3.63;;;;;;;;;;5013902;28;20245;-77
2024/01/01 04:17:05;;;;;;;6.13;2.93;;;;;;;;;;5032256;28;20201;-78
2024/01/01 04:19:32;;;;;;;7.67;3.50;;;;;;;;;;5029803;28;20198;-78
2024/01/01 04:21:58;;;;;;;12.47;3.73;;;;;;;;;;5026373;28;20206;-78
2024/01/01 04:24:24;;;;;;;8.73;3.20;;;;;;;;;;5030132;28;20229;-77
2024/01/01 04:26:50;;;;;;;9.93;3.60;;;;;;;;;;5028954;28;20217;-77
2024/01/01 04:29:16;;;;;;;5.93;3.03;;;;;;;;;;5031464;28;20582;-77
2024/01/01 04:31:42;;;;;;;7.07;3.00;;;;;;;;;;5031503;28;20824;-77
2024/01/01 04:34:08;;;;;;;4.90;2.70;;;;;;;;;;5031369;28;20236;-77
2024/01/01 04:36:35;;;;;;;6.17;2.50;;;;;;;;;;5012888;28;20647;-78
2024/01/01 04:39:03;;;;;;;7.30;2.67;;;;;;;;;;5030953;28;20199;-77
2024/01/01 04:41:30;;;;;;;6.00;2.73;;;;;;;;;;5029642;28;20249;-78
2024/01/01 04:43:56;;;;;;;7.00;2.77;;;;;;;;;;5033052;28;20650;-77
2024/01/01 04:46:22;;;;;;;8.03;2.70;;;;;;;;;;5013404;28;20290;-78
2024/01/01 04:48:49;;;;;;;8.73;3.03;;;;;;;;;;5032426;28;20233;-78
2024/01/01 04:51:15;;;;;;;7.87;3.00;;;;;;;;;;5030698;28;20185;-78
2024/01/01 04:53:41;;;;;;;7.63;2.90;;;;;;;;;;5029755;28;20194;-77
2024/01/01 04:56:07;;;;;;;6.13;2.87;;;;;;;;;;5030012;28;20183;-77
2024/01/01 04:58:34;;;;;;;6.70;2.47;;;;;;;;;;5031122;28;20544;-78
2024/01/01 05:01:00;;;;;;;6.43;2.53;;;;;;;;;;5031574;28;20194;-78
2024/01/01 05:03:26;;;;;;;9.60;2.87;;;;;;;;;;5031533;28;20284;-78
2024/01/01 05:05:53;;;;;;;8.80;2.70;;;;;;;;;;5031483;28;20288;-77
2024/01/01 05:08:19;;;;;;;8.43;2.60;;;;;;;;;;5025627;28;20190;-78
2024/01/01 05:10:45;;;;;;;7.40;2.50;;;;;;;;;;5025823;28;20213;-78
2024/01/01 05:13:11;;;;;;;11.60;3.20;;;;;;;;;;5030227;28;20198;-78
2024/01/01 05:15:39;;;;;;;8.27;2.73;;;;;;;;;;5026564;28;20608;-78
2024/01/01 05:18:06;;;;;;;6.73;3.07;;;;;;;;;;5029861;28;20182;-78
2024/01/01 05:20:32;;;;;;;6.90;3.00;;;;;;;;;;5029756;28;20199;-78
2024/01/01 05:22:58;;;;;;;7.80;3.10;;;;;;;;;;5025096;28;20203;-78
2024/01/01 05:25:24;;;;;;;13.10;3.30;;;;;;;;;;5026530;28;20218;-78
2024/01/01 05:27:50;;;;;;;10.13;3.50;;;;;;;;;;5030375;28;20265;-77
2024/01/01 05:30:17;;;;;;;9.70;3.93;;;;;;;;;;5028424;28;20176;-78
2024/01/01 05:32:43;;;;;;;9.17;3.47;;;;;;;;;;5030704;28;20215;-78
2024/01/01 05:35:09;;;;;;;6.43;2.77;;;;;;;;;;5031892;28;20274;-78
2024/01/01 05:37:35;;;;;;;6.40;2.60;;;;;;;;;;5026379;28;20189;-78
2024/01/01 05:40:02;;;;;;;7.73;2.77;;;;;;;;;;5025522;28;20175;-78
2024/01/01 05:42:31;;;;;;;9.20;2.43;;;;;;;;;;5031411;28;20253;-78
2024/01/01 05:44:58;;;;;;;8.90;2.80;;;;;;;;;;5031113;28;20183;-78
2024/01/01 05:47:24;;;;;;;9.00;2.57;;;;;;;;;;5014209;28;20291;-78
2024/01/01 05:49:50;;;;;;;8.53;3.17;;;;;;;;;;5030778;28;20190;-78
2024/01/01 05:52:19;;;;;;;7.40;2.60;;;;;;;;;;5012858;28;20581;-82
2024/01/01 05:54:45;;;;;;;7.73;2.33;;;;;;;;;;5027208;28;20190;-78
2024/01/01 05:57:11;;;;;;;12.73;2.73;;;;;;;;;;5021701;28;20186;-78
2024/01/01 05:59:37;;;;;;;10.30;2.83;;;;;;;;;;5028740;28;20678;-78
2024/01/01 06:02:03;;;;;;;7.33;2.77;;;;;;;;;;5029806;28;20206;-78
2024/01/01 06:04:30;;;;;;;9.67;2.77;;;;;;;;;;5026656;28;20199;-77
2024/01/01 06:06:57;;;;;;;9.30;2.83;;;;;;;;;;5031436;28;20241;-78
2024/01/01 06:09:23;;;;;;;6.10;2.70;;;;;;;;;;5028203;28;20605;-77
2024/01/01 06:11:49;;;;;;;6.83;2.47;;;;;;;;;;5029488;28;20213;-78
2024/01/01 06:14:15;;;;;;;9.03;2.90;;;;;;;;;;5025606;28;20190;-77
2024/01/01 06:16:43;;;;;;;5.13;2.40;;;;;;;;;;5028206;28;20843;-78
2024/01/01 06:19:10;;;;;;;8.27;2.90;;;;;;;;;;5023481;28;20202;-77
2024/01/01 06:21:36;;;;;;;6.40;2.60;;;;;;;;;;5021208;28;20210;-77
2024/01/01 06:24:03;;;;;;;9.20;2.70;;;;;;;;;;5027664;28;20682;-77
2024/01/01 06:26:29;;;;;;;6.07;2.40;;;;;;;;;;5025650;28;20218;-77
2024/01/01 06:28:55;;;;;;;7.67;2.40;;;;;;;;;;5012057;28;20691;-78
2024/01/01 06:31:21;;;;;;;8.63;2.60;;;;;;;;;;5028873;28;20228;-77
2024/01/01 06:33:47;;;;;;;13.07;2.60;;;;;;;;;;5022893;28;20179;-77
2024/01/01 06:36:13;;;;;;;10.40;2.60;;;;;;;;;;5025658;28;20277;-77
2024/01/01 06:38:39;;;;;;;6.97;2.50;;;;;;;;;;5024102;28;20182;-78
2024/01/01 06:41:06;;;;;;;6.90;2.50;;;;;;;;;;5026309;28;20239;-78
2024/01/01 06:43:33;;;;;;;8.27;2.67;;;;;;;;;;5006131;28;20225;-78
2024/01/01 06:46:00;;;;;;;7.07;2.23;;;;;;;;;;5027158;28;20601;-77
2024/01/01 06:48:26;;;;;;;8.73;2.50;;;;;;;;;;5026044;28;20184;-78
2024/01/01 06:50:53;;;;;;;5.77;2.10;;;;;;;;;;5022634;28;20195;-78
2024/01/01 06:53:19;;;;;;;7.60;2.10;;;;;;;;;;5030606;28;20404;-78
2024/01/01 06:55:45;;;;;;;6.50;1.93;;;;;;;;;;5022022;28;20195;-78
2024/01/01 06:58:11;;;;;;;6.67;1.83;;;;;;;;;;5030255;28;20190;-78
2024/01/01 07:00:37;;;;;;;8.13;2.20;;;;;;;;;;5025123;28;20208;-78
2024/01/01 07:03:03;;;;;;;9.20;2.13;;;;;;;;;;5027509;28;20532;-78
2024/01/01 07:05:29;;;;;;;6.97;2.07;;;;;;;;;;5011897;28;20276;-78
2024/01/01 07:07:56;;;;;;;8.87;1.90;;;;;;;;;;5028751;28;20178;-78
2024/01/01 07:10:22;;;;;;;5.23;1.80;;;;;;;;;;5019271;28;20187;-77
2024/01/01 07:12:48;;;;;;;6.40;1.90;;;;;;;;;;5029248;28;20238;-78
2024/01/01 07:15:14;;;;;;;10.53;1.97;;;;;;;;;;5021398;28;20191;-77
2024/01/01 07:17:40;;;;;;;7.93;2.17;;;;;;;;;;5026233;28;20265;-78
2024/01/01 07:20:07;;;;;;;7.03;2.00;;;;;;;;;;5021507;28;20252;-78
2024/01/01 07:22:33;;;;;;;9.83;2.53;;;;;;;;;;5027975;28;20214;-78
2024/01/01 07:24:59;;;;;;;9.80;2.07;;;;;;;;;;5023686;28;20638;-78
2024/01/01 07:27:25;;;;;;;8.57;2.10;;;;;;;;;;5025359;28;20293;-78
2024/01/01 07:29:51;;;;;;;11.00;2.23;;;;;;;;;;5012757;28;20213;-78
2024/01/01 07:32:17;;;;;;;10.57;2.30;;;;;;;;;;5029222;28;20697;-77
2024/01/01 07:34:44;;;;;;;10.70;2.77;;;;;;;;;;5027297;28;20205;-77
2024/01/01 07:37:10;;;;;;;8.50;2.00;;;;;;;;;;5028819;28;20183;-77
2024/01/01 07:39:37;;;;;;;11.90;2.30;;;;;;;;;;5030660;28;20236;-78
2024/01/01 07:42:03;;;;;;;7.57;1.80;;;;;;;;;;5032627;28;20560;-77
2024/01/01 07:44:29;;;;;;;8.63;2.20;;;;;;;;;;5029424;28;20179;-78
2024/01/01 07:46:56;;;;;;;6.23;1.70;;;;;;;;;;5031074;28;20202;-78
2024/01/01 07:49:22;;;;;;;7.10;1.67;;;;;;;;;;5030750;28;20669;-77
2024/01/01 07:51:48;;;;;;;9.60;1.90;;;;;;;;;;5022321;28;20622;-77
2024/01/01 07:54:14;;;;;;;9.60;1.93;;;;;;;;;;5029538;28;20546;-77
2024/01/01 07:56:44;;;;;;;8.50;2.23;;;;;;;;;;5025522;28;20179;-77
2024/01/01 07:59:11;;;;;;;9.50;2.00;;;;;;;;;;5031036;28;20696;-78
2024/01/01 08:01:37;;;;;;;5.77;1.90;;;;;;;;;;5032388;28;20213;-77
2024/01/01 08:04:03;;;;;;;5.70;1.80;;;;;;;;;;5033314;28;20182;-77
2024/01/01 08:06:29;;;;;;;8.43;1.90;;;;;;;;;;5035094;28;20681;-77
2024/01/01 08:08:55;;;;;;;7.50;1.90;;;;;;;;;;5031920;28;20191;-78
2024/01/01 08:11:21;;;;;;;6.10;1.90;;;;;;;;;;5030884;28;20192;-77
2024/01/01 08:13:47;;;;;;;6.47;1.90;;;;;;;;;;5033329;28;20290;-77
2024/01/01 08:16:18;;;;;;;7.93;1.83;;;;;;;;;;5027231;28;20191;-78
2024/01/01 08:18:45;;;;;;;8.23;2.10;;;;;;;;;;5027599;28;20277;-77
2024/01/01 08:21:11;;;;;;;6.90;1.83;;;;;;;;;;5022761;28;20187;-78
2024/01/01 08:23:38;;;;;;;7.20;2.50;;;;;;;;;;5030167;28;20190;-78
2024/01/01 08:26:05;;;;;;;4.60;1.80;;;;;;;;;;5029140;28;20686;-78
2024/01/01 08:28:32;;;;;;;6.30;1.83;;;;;;;;;;5033142;28;20708;-74
2024/01/01 08:31:01;;;;;;;6.83;1.83;;;;;;;;;;5029420;28;20201;-76
2024/01/01 08:33:30;;;;;;;8.33;2.20;;;;;;;;;;5031125;28;20305;-75
2024/01/01 08:35:56;;;;;;;5.00;1.80;;;;;;;;;;5033576;28;20186;-76
2024/01/01 08:38:22;;;;;;;8.20;2.00;;;;;;;;;;5034019;28;20220;-75
2024/01/01 08:40:48;;;;;;;5.30;1.93;;;;;;;;;;5024293;28;20197;-76
2024/01/01 08:43:15;;;;;;;7.60;2.00;;;;;;;;;;5011584;28;20310;-75
2024/01/01 08:45:41;;;;;;;7.10;1.93;;;;;;;;;;5022982;28;20268;-76
2024/01/01 08:48:07;;;;;;;6.67;1.67;;;;;;;;;;5018116;28;20736;-76
2024/01/01 08:50:33;;;;;;;9.77;1.93;;;;;;;;;;5022956;28;20558;-76
2024/01/01 08:53:00;;;;;;;5.27;2.13;;;;;;;;;;5009306;28;20605;-76
2024/01/01 08:55:27;;;;;;;5.90;1.93;;;;;;;;;;5023762;28;20187;-76
2024/01/01 08:57:53;;;;;;;10.77;2.30;;;;;;;;;;5024172;28;20702;-76
2024/01/01 09:00:19;;;;;;;7.90;1.90;;;;;;;;;;5022075;28;20215;-75
2024/01/01 09:02:45;;;;;;;13.13;1.97;;;;;;;;;;5022418;28;20205;-76
2024/01/01 09:05:11;;;;;;;7.33;1.97;;;;;;;;;;5026548;28;20386;-76
2024/01/01 09:07:37;;;;;;;5.90;1.60;;;;;;;;;;5025820;28;20333;-76
2024/01/01 09:10:04;;;;;;;8.90;2.10;;;;;;;;;;5025251;28;20198;-76
2024/01/01 09:12:30;;;;;;;7.67;1.83;;;;;;;;;;5030122;28;20289;-76
2024/01/01 09:14:56;;;;;;;7.53;1.70;;;;;;;;;;5028304;28;20312;-76
2024/01/01 09:17:23;;;;;;;10.17;2.13;;;;;;;;;;5019742;28;20269;-76
2024/01/01 09:19:49;;;;;;;7.40;1.80;;;;;;;;;;5024964;28;20186;-76
2024/01/01 09:22:15;;;;;;;7.03;1.70;;;;;;;;;;5023570;28;20202;-76
2024/01/01 09:24:44;;;;;;;7.80;1.87;;;;;;;;;;5017724;28;20677;-76
2024/01/01 09:27:10;;;;;;;9.57;2.00;;;;;;;;;;5022261;28;20218;-76
2024/01/01 09:29:36;;;;;;;6.20;1.87;;;;;;;;;;5028894;28;20603;-76
2024/01/01 09:32:03;;;;;;;9.83;2.20;;;;;;;;;;5022561;28;20301;-76
2024/01/01 09:34:30;;;;;;;10.93;2.30;;;;;;;;;;5024134;28;20214;-76
2024/01/01 09:36:56;;;;;;;8.07;1.70;;;;;;;;;;5022707;28;20179;-76
2024/01/01 09:39:24;;;;;;;9.23;2.10;;;;;;;;;;5025709;28;20249;-76
2024/01/01 09:41:52;;;;;;;8.17;2.03;;;;;;;;;;5020316;28;20691;-76
2024/01/01 09:44:18;;;;;;;7.67;1.77;;;;;;;;;;5023832;28;20197;-76
2024/01/01 09:46:46;;;;;;;5.30;1.77;;;;;;;;;;5022100;28;20762;-76
2024/01/01 09:49:12;;;;;;;7.50;1.83;;;;;;;;;;5039089;28;20421;-76
2024/01/01 09:51:39;;;;;;;7.77;1.77;;;;;;;;;;5025880;28;20285;-76
2024/01/01 09:54:06;;;;;;;8.00;2.07;;;;;;;;;;5020081;28;20179;-76
2024/01/01 09:56:33;;;;;;;9.10;2.07;;;;;;;;;;5011575;28;20206;-76
2024/01/01 09:58:59;;;;;;;10.07;1.90;;;;;;;;;;5020939;28;20190;-79
2024/01/01 10:01:25;;;;;;;6.70;1.87;;;;;;;;;;5024718;28;20226;-75
2024/01/01 10:04:01;;;;;;;8.40;1.93;;;;;;;;;;5026388;28;20186;-76
2024/01/01 10:06:28;;;;;;;7.30;1.80;;;;;;;;;;5025891;28;20210;-80
2024/01/01 10:09:12;;;;;;;7.87;2.30;;;;;;;;;;5022404;28;20324;-73
2024/01/01 10:11:41;;;;;;;7.17;2.10;;;;;;;;;;5022664;28;20209;-75
2024/01/01 10:14:07;;;;;;;6.40;1.87;;;;;;;;;;5029327;28;20178;-74
2024/01/01 10:16:33;;;;;;;10.70;1.90;;;;;;;;;;5019355;28;20213;-74
2024/01/01 10:19:04;;;;;;;7.13;2.20;;;;;;;;;;5023433;28;20182;-74
2024/01/01 10:21:30;;;;;;;8.23;1.97;;;;;;;;;;5023323;28;20214;-78
2024/01/01 10:23:57;;;;;;;7.20;1.90;;;;;;;;;;5025672;28;20185;-76
2024/01/01 10:26:23;;;;;;;4.27;1.80;;;;;;;;;;5021192;28;20206;-76
2024/01/01 10:28:50;;;;;;;9.53;2.07;;;;;;;;;;5025232;28;20179;-77
2024/01/01 10:31:16;;;;;;;10.43;2.03;;;;;;;;;;5027673;28;20339;-77
2024/01/01 10:33:43;;;;;;;7.60;1.93;;;;;;;;;;5011278;28;20182;-77
2024/01/01 10:36:11;;;;;;;4.83;1.70;;;;;;;;;;5011939;28;20262;-77
2024/01/01 10:38:38;;;;;;;9.73;1.90;;;;;;;;;;5027343;28;20654;-77
2024/01/01 10:41:06;;;;;;;7.23;2.00;;;;;;;;;;5028580;28;20186;-77
2024/01/01 10:43:34;;;;;;;7.03;1.90;;;;;;;;;;5028757;28;20198;-77
2024/01/01 10:46:02;;;;;;;6.47;1.97;;;;;;;;;;5027777;28;20236;-77
2024/01/01 10:48:28;;;;;;;7.93;1.90;;;;;;;;;;5029925;28;20266;-77
2024/01/01 10:51:18;;;;;;;6.07;1.83;;;;;;;;;;5029864;28;20179;-77
2024/01/01 10:53:53;;;;;;;11.23;2.17;;;;;;;;;;5025481;28;20296;-77
2024/01/01 10:56:40;;;;;;;4.87;1.70;;;;;;;;;;5025598;28;20177;-76
2024/01/01 10:59:11;;;;;;;5.27;1.97;;;;;;;;;;5026129;28;20194;-80
2024/01/01 11:01:38;;;;;;;7.73;2.60;;;;;;;;;;5024647;28;20280;-79
2024/01/01 11:04:05;;;;;;;6.43;2.00;;;;;;;;;;5031511;28;20183;-79
2024/01/01 11:06:35;;;;;;;8.43;2.40;;;;;;;;;;5029004;28;20796;-79
2024/01/01 11:09:19;;;;;;;5.83;2.07;;;;;;;;;;5026780;28;20178;-78
2024/01/01 11:11:49;;;;;;;11.37;2.90;;;;;;;;;;5029231;28;20235;-78
2024/01/01 11:14:31;;;;;;;6.07;2.00;;;;;;;;;;5024680;28;20595;-78
2024/01/01 11:17:00;;;;;;;7.00;1.83;;;;;;;;;;5022275;28;20600;-77
2024/01/01 11:19:41;;;;;;;6.17;1.90;;;;;;;;;;5024286;28;20198;-77
2024/01/01 11:22:33;;;;;;;6.13;1.97;;;;;;;;;;5041910;28;20323;-78
2024/01/01 11:25:00;;;;;;;6.40;1.80;;;;;;;;;;5028983;28;20182;-78
2024/01/01 11:27:32;;;;;;;7.17;1.90;;;;;;;;;;5011916;28;20210;-78
2024/01/01 11:30:00;;;;;;;5.80;1.70;;;;;;;;;;5031714;28;20702;-78
2024/01/01 11:32:26;;;;;;;6.27;1.73;;;;;;;;;;5036986;28;20589;-78
2024/01/01 11:35:12;;;;;;;8.97;1.97;;;;;;;;;;5025985;28;20183;-78
2024/01/01 11:37:38;;;;;;;7.57;2.03;;;;;;;;;;5031845;28;20244;-78
2024/01/01 11:40:05;;;;;;;5.60;1.70;;;;;;;;;;5036626;28;20614;-78
2024/01/01 11:42:32;;;;;;;7.30;1.97;;;;;;;;;;5035806;28;20206;-78
2024/01/01 11:45:12;;;;;;;9.77;2.53;;;;;;;;;;5042770;28;20193;-78
2024/01/01 11:47:38;;;;;;;8.23;1.83;;;;;;;;;;5036638;28;20603;-78
2024/01/01 11:50:05;;;;;;;7.43;2.07;;;;;;;;;;5046164;28;20182;-78
2024/01/01 11:52:32;;;;;;;8.83;2.00;;;;;;;;;;5035614;28;20255;-78
2024/01/01 11:54:58;;;;;;;8.87;2.07;;;;;;;;;;5033892;28;20243;-78
2024/01/01 11:57:24;;;;;;;8.53;2.00;;;;;;;;;;5035448;28;20179;-78
2024/01/01 11:59:51;;;;;;;8.77;2.13;;;;;;;;;;5041467;28;20194;-77
2024/01/01 12:02:17;;;;;;;10.30;2.10;;;;;;;;;;5034980;28;20709;-78
2024/01/01 12:04:47;;;;;;;6.33;2.10;;;;;;;;;;5042393;28;20178;-78
2024/01/01 12:07:33;;;;;;;10.77;2.50;;;;;;;;;;5035017;28;20755;-78
2024/01/01 12:10:02;;;;;;;10.97;2.20;;;;;;;;;;5028033;28;20265;-79
2024/01/01 12:12:28;;;;;;;8.47;2.30;;;;;;;;;;5036365;28;20221;-78
2024/01/01 12:15:06;;;;;;;9.33;2.17;;;;;;;;;;5041030;28;20208;-78
2024/01/01 12:17:32;;;;;;;8.63;2.10;;;;;;;;;;5034704;28;20193;-77
2024/01/01 12:19:59;;;;;;;9.43;2.47;;;;;;;;;;5034165;28;20215;-77
2024/01/01 12:22:26;;;;;;;7.47;2.10;;;;;;;;;;5042048;28;20202;-79
2024/01/01 12:24:58;;;;;;;9.97;2.20;;;;;;;;;;5019501;28;20795;-77
2024/01/01 12:27:24;;;;;;;11.47;2.53;;;;;;;;;;5028955;28;20206;-77
2024/01/01 12:29:51;;;;;;;7.60;2.10;;;;;;;;;;5023570;28;20180;-79
2024/01/01 12:32:17;;;;;;;10.60;2.40;;;;;;;;;;5023777;28;20542;-79
2024/01/01 12:34:43;;;;;;;8.17;2.67;;;;;;;;;;5011858;28;20196;-80
2024/01/01 12:37:09;;;;;;;9.80;2.27;;;;;;;;;;5039048;28;20775;-80
2024/01/01 12:39:35;;;;;;;8.07;2.30;;;;;;;;;;5027560;28;20296;-77
2024/01/01 12:42:03;;;;;;;9.40;2.03;;;;;;;;;;5031663;28;20323;-77
2024/01/01 12:44:29;;;;;;;8.10;2.20;;;;;;;;;;5037139;28;20649;-78
2024/01/01 12:46:55;;;;;;;9.07;2.00;;;;;;;;;;5030035;28;20224;-78
2024/01/01 12:49:21;;;;;;;7.67;2.00;;;;;;;;;;5031665;28;20236;-78
2024/01/01 12:51:48;;;;;;;6.50;2.10;;;;;;;;;;5011962;28;20209;-78
2024/01/01 12:54:15;;;;;;;6.47;1.87;;;;;;;;;;5025455;28;20179;-78
2024/01/01 12:56:41;;;;;;;9.47;2.60;;;;;;;;;;5043401;28;20726;-79
2024/01/01 12:59:09;;;;;;;12.47;2.70;;;;;;;;;;5030046;28;20190;-78
2024/01/01 13:01:36;;;;;;;8.00;2.20;;;;;;;;;;5029146;28;20214;-78
2024/01/01 13:04:02;;;;;;;10.70;2.43;;;;;;;;;;5027712;28;20190;-79
2024/01/01 13:06:28;;;;;;;7.93;2.30;;;;;;;;;;5042025;28;20544;-78
2024/01/01 13:08:55;;;;;;;9.13;2.73;;;;;;;;;;5036852;28;20214;-78
2024/01/01 13:11:21;;;;;;;9.63;2.70;;;;;;;;;;5031207;28;20179;-78
2024/01/01 13:13:47;;;;;;;11.63;4.07;;;;;;;;;;5009022;28;20190;-75
2024/01/01 13:16:13;;;;;;;12.57;3.90;;;;;;;;;;5032393;28;20467;-79
2024/01/01 13:18:39;;;;;;;10.20;3.00;;;;;;;;;;5018414;28;20714;-78
2024/01/01 13:21:07;;;;;;;11.07;3.70;;;;;;;;;;5007388;28;20192;-79
2024/01/01 13:23:33;;;;;;;9.30;2.93;;;;;;;;;;5023261;28;20693;-77
2024/01/01 13:26:01;;;;;;;38.30;25.87;;;;;;;;;;5008125;28;20295;-79
2024/01/01 13:28:27;;;;;;;16.47;8.23;;;;;;;;;;5033972;28;20178;-76
2024/01/01 13:30:53;;;;;;;12.67;4.17;;;;;;;;;;5022219;28;20282;-77
2024/01/01 13:33:19;;;;;;;8.20;2.73;;;;;;;;;;5031103;28;20218;-80
2024/01/01 13:35:45;;;;;;;8.80;2.97;;;;;;;;;;5024243;28;20256;-74
2024/01/01 13:38:12;;;;;;;11.87;3.90;;;;;;;;;;5021929;28;20194;-76
2024/01/01 13:40:41;;;;;;;10.73;2.30;;;;;;;;;;5045003;28;20191;-73
2024/01/01 13:43:11;;;;;;;10.17;2.37;;;;;;;;;;5034158;28;20211;-73
2024/01/01 13:45:37;;;;;;;9.57;2.60;;;;;;;;;;5023066;28;20393;-77
2024/01/01 13:48:04;;;;;;;6.30;2.20;;;;;;;;;;5021854;28;20193;-76
2024/01/01 13:50:30;;;;;;;12.40;2.50;;;;;;;;;;5041723;28;20186;-77
2024/01/01 13:52:56;;;;;;;10.93;2.73;;;;;;;;;;5025905;28;20742;-77
2024/01/01 13:55:22;;;;;;;8.43;2.23;;;;;;;;;;5022162;28;20203;-77
2024/01/01 13:57:48;;;;;;;13.93;2.23;;;;;;;;;;5024285;28;20560;-77
2024/01/01 14:00:15;;;;;;;11.07;2.40;;;;;;;;;;5025063;28;20558;-77
2024/01/01 14:02:41;;;;;;;12.93;2.60;;;;;;;;;;5003639;28;20223;-77
2024/01/01 14:05:08;;;;;;;9.90;2.40;;;;;;;;;;5028985;28;20597;-76
2024/01/01 14:07:35;;;;;;;12.20;3.27;;;;;;;;;;5013450;28;20306;-77
2024/01/01 14:10:02;;;;;;;11.50;3.93;;;;;;;;;;5017934;28;20598;-77
2024/01/01 14:12:28;;;;;;;16.33;5.97;;;;;;;;;;5034678;28;20213;-77
2024/01/01 14:14:54;;;;;;;10.03;3.07;;;;;;;;;;4997935;28;20178;-77
2024/01/01 14:17:20;;;;;;;11.93;3.10;;;;;;;;;;5023393;28;20197;-78
2024/01/01 14:19:46;;;;;;;11.83;2.87;;;;;;;;;;5027792;28;20217;-77
2024/01/01 14:22:13;;;;;;;7.53;2.50;;;;;;;;;;5017767;28;20206;-77
2024/01/01 14:24:39;;;;;;;11.77;3.63;;;;;;;;;;5021554;28;20276;-77
2024/01/01 14:27:11;;;;;;;8.77;3.20;;;;;;;;;;5019353;28;20289;-77
2024/01/01 14:29:37;;;;;;;10.83;3.37;;;;;;;;;;5027169;28;20190;-76
2024/01/01 14:32:07;;;;;;;12.03;2.70;;;;;;;;;;5021753;28;20212;-78
2024/01/01 14:34:34;;;;;;;10.13;3.30;;;;;;;;;;5028056;28;20650;-81
2024/01/01 14:37:03;;;;;;;12.03;2.73;;;;;;;;;;5026643;28;20190;-77